sensor_id;sensor_type;location;lat;lon;timestamp;temperature;humidity
27368;DHT22;14839;48.106;11.618;2023-12-22T05:02:20;4.90;94.60
27368;DHT22;14839;48.106;11.618;2023-12-22T05:04:46;4.90;94.60
27368;DHT22;14839;48.106;11.618;2023-12-22T05:07:24;5.00;94.60
27368;DHT22;14839;48.106;11.618;2023-12-22T05:09:50;5.00;94.60
27368;DHT22;14839;48.106;11.618;2023-12-22T05:12:18;5.10;94.60
27368;DHT22;14839;48.106;11.618;2023-12-22T05:14:46;5.20;94.60
27368;DHT22;14839;48.106;11.618;2023-12-22T05:17:15;5.20;94.60
27368;DHT22;14839;48.106;11.618;2023-12-22T05:19:42;5.30;94.60
27368;DHT22;14839;48.106;11.618;2023-12-22T05:52:29;5.70;94.60
27368;DHT22;14839;48.106;11.618;2023-12-22T05:55:05;5.60;94.60
27368;DHT22;14839;48.106;11.618;2023-12-22T05:57:30;5.50;94.60
27368;DHT22;14839;48.106;11.618;2023-12-22T05:59:56;5.40;94.60
27368;DHT22;14839;48.106;11.618;2023-12-22T06:02:21;5.40;94.60
27368;DHT22;14839;48.106;11.618;2023-12-22T06:04:47;5.30;94.60
27368;DHT22;14839;48.106;11.618;2023-12-22T06:07:13;5.20;94.60
27368;DHT22;14839;48.106;11.618;2023-12-22T06:09:38;5.20;94.60
27368;DHT22;14839;48.106;11.618;2023-12-22T06:12:05;5.20;94.60
27368;DHT22;14839;48.106;11.618;2023-12-22T06:14:30;5.10;94.60
27368;DHT22;14839;48.106;11.618;2023-12-22T06:16:57;5.10;94.60
27368;DHT22;14839;48.106;11.618;2023-12-22T06:19:23;5.10;94.60
27368;DHT22;14839;48.106;11.618;2023-12-22T06:21:53;5.10;94.60
27368;DHT22;14839;48.106;11.618;2023-12-22T06:24:19;5.10;94.60
27368;DHT22;14839;48.106;11.618;2023-12-22T06:26:45;5.10;94.60
27368;DHT22;14839;48.106;11.618;2023-12-22T06:29:10;5.10;94.60
27368;DHT22;14839;48.106;11.618;2023-12-22T06:31:36;5.10;94.60
27368;DHT22;14839;48.106;11.618;2023-12-22T06:34:01;5.10;94.60
27368;DHT22;14839;48.106;11.618;2023-12-22T06:36:28;5.00;94.60
27368;DHT22;14839;48.106;11.618;2023-12-22T06:38:55;5.00;94.60
27368;DHT22;14839;48.106;11.618;2023-12-22T06:41:26;5.00;94.60
27368;DHT22;14839;48.106;11.618;2023-12-22T06:43:52;5.00;94.60
27368;DHT22;14839;48.106;11.618;2023-12-22T06:46:18;5.00;94.60
27368;DHT22;14839;48.106;11.618;2023-12-22T06:48:45;5.00;94.60
27368;DHT22;14839;48.106;11.618;2023-12-22T06:51:26;5.00;94.60
27368;DHT22;14839;48.106;11.618;2023-12-22T06:53:53;5.10;94.60
27368;DHT22;14839;48.106;11.618;2023-12-22T06:56:20;5.20;94.60
27368;DHT22;14839;48.106;11.618;2023-12-22T06:58:47;5.20;94.60
27368;DHT22;14839;48.106;11.618;2023-12-22T07:01:21;5.30;94.60
27368;DHT22;14839;48.106;11.618;2023-12-22T07:03:48;5.40;94.60
27368;DHT22;14839;48.106;11.618;2023-12-22T07:06:15;5.40;94.60
27368;DHT22;14839;48.106;11.618;2023-12-22T07:08:41;5.50;94.60
27368;DHT22;14839;48.106;11.618;2023-12-22T07:11:06;5.50;94.60
27368;DHT22;14839;48.106;11.618;2023-12-22T07:13:32;5.60;94.60
27368;DHT22;14839;48.106;11.618;2023-12-22T07:15:58;5.60;94.60
27368;DHT22;14839;48.106;11.618;2023-12-22T07:18:24;5.60;94.60
27368;DHT22;14839;48.106;11.618;2023-12-22T07:20:50;5.60;94.60
27368;DHT22;14839;48.106;11.618;2023-12-22T07:23:16;5.60;94.60
27368;DHT22;14839;48.106;11.618;2023-12-22T07:25:41;5.70;94.60
27368;DHT22;14839;48.106;11.618;2023-12-22T07:28:07;5.60;94.60
27368;DHT22;14839;48.106;11.618;2023-12-22T07:30:33;5.60;94.60
27368;DHT22;14839;48.106;11.618;2023-12-22T07:32:59;5.60;94.60
27368;DHT22;14839;48.106;11.618;2023-12-22T07:35:24;5.50;94.60
27368;DHT22;14839;48.106;11.618;2023-12-22T07:37:50;5.40;94.60
27368;DHT22;14839;48.106;11.618;2023-12-22T07:40:15;5.30;94.60
27368;DHT22;14839;48.106;11.618;2023-12-22T07:42:41;5.20;94.60
27368;DHT22;14839;48.106;11.618;2023-12-22T07:45:07;5.20;94.60
27368;DHT22;14839;48.106;11.618;2023-12-22T07:47:33;5.20;94.60
27368;DHT22;14839;48.106;11.618;2023-12-22T07:49:59;5.20;94.60
27368;DHT22;14839;48.106;11.618;2023-12-22T07:52:24;5.20;94.60
27368;DHT22;14839;48.106;11.618;2023-12-22T07:54:50;5.30;94.60
27368;DHT22;14839;48.106;11.618;2023-12-22T07:57:16;5.30;94.60
27368;DHT22;14839;48.106;11.618;2023-12-22T07:59:42;5.40;94.60
27368;DHT22;14839;48.106;11.618;2023-12-22T08:02:08;5.40;94.60
27368;DHT22;14839;48.106;11.618;2023-12-22T08:04:33;5.50;94.60
27368;DHT22;14839;48.106;11.618;2023-12-22T08:06:59;5.70;94.60
27368;DHT22;14839;48.106;11.618;2023-12-22T08:09:25;5.80;94.60
27368;DHT22;14839;48.106;11.618;2023-12-22T08:11:50;5.90;94.60
27368;DHT22;14839;48.106;11.618;2023-12-22T08:14:18;5.90;94.60
27368;DHT22;14839;48.106;11.618;2023-12-22T08:16:44;6.00;94.60
27368;DHT22;14839;48.106;11.618;2023-12-22T08:19:10;6.10;94.60
27368;DHT22;14839;48.106;11.618;2023-12-22T08:21:36;6.10;94.60
27368;DHT22;14839;48.106;11.618;2023-12-22T08:24:01;5.90;94.60
27368;DHT22;14839;48.106;11.618;2023-12-22T08:26:27;5.80;94.60
27368;DHT22;14839;48.106;11.618;2023-12-22T08:28:52;5.60;94.60
27368;DHT22;14839;48.106;11.618;2023-12-22T08:31:18;5.50;94.60
27368;DHT22;14839;48.106;11.618;2023-12-22T08:33:44;5.40;94.60
27368;DHT22;14839;48.106;11.618;2023-12-22T08:36:11;5.30;94.60
27368;DHT22;14839;48.106;11.618;2023-12-22T08:38:37;5.20;94.60
27368;DHT22;14839;48.106;11.618;2023-12-22T08:41:06;5.20;94.60
27368;DHT22;14839;48.106;11.618;2023-12-22T08:43:33;5.20;94.60
27368;DHT22;14839;48.106;11.618;2023-12-22T08:45:58;5.20;94.60
27368;DHT22;14839;48.106;11.618;2023-12-22T08:48:24;5.20;94.60
27368;DHT22;14839;48.106;11.618;2023-12-22T08:50:49;5.30;94.60
27368;DHT22;14839;48.106;11.618;2023-12-22T08:53:15;5.30;94.60
27368;DHT22;14839;48.106;11.618;2023-12-22T08:55:41;5.40;94.60
27368;DHT22;14839;48.106;11.618;2023-12-22T08:58:06;5.50;94.60
27368;DHT22;14839;48.106;11.618;2023-12-22T09:00:32;5.50;94.60
27368;DHT22;14839;48.106;11.618;2023-12-22T09:02:57;5.50;94.60
27368;DHT22;14839;48.106;11.618;2023-12-22T09:05:23;5.50;94.60
27368;DHT22;14839;48.106;11.618;2023-12-22T09:07:49;5.50;94.60
27368;DHT22;14839;48.106;11.618;2023-12-22T09:10:14;5.50;94.60
27368;DHT22;14839;48.106;11.618;2023-12-22T09:12:40;5.60;94.60
27368;DHT22;14839;48.106;11.618;2023-12-22T09:15:06;5.60;94.60
27368;DHT22;14839;48.106;11.618;2023-12-22T09:17:31;5.70;94.60
27368;DHT22;14839;48.106;11.618;2023-12-22T09:19:57;5.80;94.60
27368;DHT22;14839;48.106;11.618;2023-12-22T09:22:23;5.80;94.60
27368;DHT22;14839;48.106;11.618;2023-12-22T09:24:49;5.80;94.60
27368;DHT22;14839;48.106;11.618;2023-12-22T09:27:14;5.90;94.60
27368;DHT22;14839;48.106;11.618;2023-12-22T09:29:40;6.00;94.60
27368;DHT22;14839;48.106;11.618;2023-12-22T09:32:06;6.10;94.60
27368;DHT22;14839;48.106;11.618;2023-12-22T09:34:32;6.20;94.60
27368;DHT22;14839;48.106;11.618;2023-12-22T09:36:57;6.30;94.60
27368;DHT22;14839;48.106;11.618;2023-12-22T09:39:23;6.30;94.60
27368;DHT22;14839;48.106;11.618;2023-12-22T09:41:49;6.30;94.60
27368;DHT22;14839;48.106;11.618;2023-12-22T09:44:21;6.30;94.60
27368;DHT22;14839;48.106;11.618;2023-12-22T09:46:52;6.30;94.60
27368;DHT22;14839;48.106;11.618;2023-12-22T09:49:18;6.40;94.60
27368;DHT22;14839;48.106;11.618;2023-12-22T09:51:46;6.40;94.60
27368;DHT22;14839;48.106;11.618;2023-12-22T09:54:12;6.40;94.60
27368;DHT22;14839;48.106;11.618;2023-12-22T09:56:40;6.40;94.60
27368;DHT22;14839;48.106;11.618;2023-12-22T09:59:11;6.40;94.60
27368;DHT22;14839;48.106;11.618;2023-12-22T10:01:44;6.40;94.60
27368;DHT22;14839;48.106;11.618;2023-12-22T10:04:14;6.30;94.60
27368;DHT22;14839;48.106;11.618;2023-12-22T10:06:41;6.40;94.60
27368;DHT22;14839;48.106;11.618;2023-12-22T10:09:07;6.20;94.60
27368;DHT22;14839;48.106;11.618;2023-12-22T10:11:35;6.00;94.60
27368;DHT22;14839;48.106;11.618;2023-12-22T10:14:02;5.90;94.60
27368;DHT22;14839;48.106;11.618;2023-12-22T10:16:28;5.80;94.60
27368;DHT22;14839;48.106;11.618;2023-12-22T10:18:55;5.60;94.60
27368;DHT22;14839;48.106;11.618;2023-12-22T10:21:20;5.50;94.60
27368;DHT22;14839;48.106;11.618;2023-12-22T10:23:46;5.40;94.60
27368;DHT22;14839;48.106;11.618;2023-12-22T10:26:12;5.30;94.60
27368;DHT22;14839;48.106;11.618;2023-12-22T10:28:37;5.20;94.60
27368;DHT22;14839;48.106;11.618;2023-12-22T10:31:03;5.10;94.60
27368;DHT22;14839;48.106;11.618;2023-12-22T10:33:32;5.00;94.60
27368;DHT22;14839;48.106;11.618;2023-12-22T10:36:02;5.00;94.60
27368;DHT22;14839;48.106;11.618;2023-12-22T10:38:32;5.00;94.60
27368;DHT22;14839;48.106;11.618;2023-12-22T10:41:01;5.00;94.60
27368;DHT22;14839;48.106;11.618;2023-12-22T10:43:26;5.00;94.60
27368;DHT22;14839;48.106;11.618;2023-12-22T10:45:52;5.00;94.60
27368;DHT22;14839;48.106;11.618;2023-12-22T10:48:18;4.90;94.60
27368;DHT22;14839;48.106;11.618;2023-12-22T10:50:44;4.90;94.60
27368;DHT22;14839;48.106;11.618;2023-12-22T10:53:11;4.90;94.60
27368;DHT22;14839;48.106;11.618;2023-12-22T10:55:37;5.00;94.60
27368;DHT22;14839;48.106;11.618;2023-12-22T10:58:03;5.00;94.60
27368;DHT22;14839;48.106;11.618;2023-12-22T11:00:32;5.00;94.60
27368;DHT22;14839;48.106;11.618;2023-12-22T11:03:01;5.10;94.60
27368;DHT22;14839;48.106;11.618;2023-12-22T11:05:28;5.20;94.60
27368;DHT22;14839;48.106;11.618;2023-12-22T11:07:55;5.40;94.60
27368;DHT22;14839;48.106;11.618;2023-12-22T11:10:21;5.50;94.60
27368;DHT22;14839;48.106;11.618;2023-12-22T11:12:47;5.70;94.60
27368;DHT22;14839;48.106;11.618;2023-12-22T11:15:14;5.70;94.60
27368;DHT22;14839;48.106;11.618;2023-12-22T11:17:42;5.80;94.60
27368;DHT22;14839;48.106;11.618;2023-12-22T11:20:12;5.80;94.60
27368;DHT22;14839;48.106;11.618;2023-12-22T11:22:39;5.70;94.60
27368;DHT22;14839;48.106;11.618;2023-12-22T11:25:06;5.70;94.60
27368;DHT22;14839;48.106;11.618;2023-12-22T11:27:33;5.70;94.60
27368;DHT22;14839;48.106;11.618;2023-12-22T11:30:00;5.80;94.60
27368;DHT22;14839;48.106;11.618;2023-12-22T11:32:27;5.70;94.60
27368;DHT22;14839;48.106;11.618;2023-12-22T11:34:54;5.80;94.60
27368;DHT22;14839;48.106;11.618;2023-12-22T11:37:22;5.80;94.60
27368;DHT22;14839;48.106;11.618;2023-12-22T11:39:48;5.80;94.60
27368;DHT22;14839;48.106;11.618;2023-12-22T11:42:26;5.90;94.60
27368;DHT22;14839;48.106;11.618;2023-12-22T11:44:53;5.90;94.60
27368;DHT22;14839;48.106;11.618;2023-12-22T11:47:22;5.90;94.60
27368;DHT22;14839;48.106;11.618;2023-12-22T11:49:48;5.90;94.60
27368;DHT22;14839;48.106;11.618;2023-12-22T11:52:17;6.00;94.60
27368;DHT22;14839;48.106;11.618;2023-12-22T11:54:47;5.90;94.60
27368;DHT22;14839;48.106;11.618;2023-12-22T11:57:34;5.90;94.60
27368;DHT22;14839;48.106;11.618;2023-12-22T12:00:05;5.90;94.60
27368;DHT22;14839;48.106;11.618;2023-12-22T12:02:35;5.80;94.60
27368;DHT22;14839;48.106;11.618;2023-12-22T12:05:01;5.80;94.60
27368;DHT22;14839;48.106;11.618;2023-12-22T12:07:47;5.80;94.60
27368;DHT22;14839;48.106;11.618;2023-12-22T12:13:11;5.80;94.60
27368;DHT22;14839;48.106;11.618;2023-12-22T12:15:38;5.80;94.60
27368;DHT22;14839;48.106;11.618;2023-12-22T12:18:05;5.80;94.60
27368;DHT22;14839;48.106;11.618;2023-12-22T12:20:33;5.80;94.60
27368;DHT22;14839;48.106;11.618;2023-12-22T12:23:01;5.80;94.60
27368;DHT22;14839;48.106;11.618;2023-12-22T12:25:31;5.80;94.60
27368;DHT22;14839;48.106;11.618;2023-12-22T12:28:04;5.90;94.60
27368;DHT22;14839;48.106;11.618;2023-12-22T12:30:35;5.90;94.60
27368;DHT22;14839;48.106;11.618;2023-12-22T12:33:09;6.00;94.60
27368;DHT22;14839;48.106;11.618;2023-12-22T12:35:35;6.00;94.60
27368;DHT22;14839;48.106;11.618;2023-12-22T12:38:03;6.00;94.60
27368;DHT22;14839;48.106;11.618;2023-12-22T12:40:30;5.90;94.60
27368;DHT22;14839;48.106;11.618;2023-12-22T12:42:58;6.00;94.60
27368;DHT22;14839;48.106;11.618;2023-12-22T12:45:24;6.00;94.60
27368;DHT22;14839;48.106;11.618;2023-12-22T12:48:00;6.00;94.60
27368;DHT22;14839;48.106;11.618;2023-12-22T12:50:27;6.00;94.60
27368;DHT22;14839;48.106;11.618;2023-12-22T12:52:54;6.00;94.60
27368;DHT22;14839;48.106;11.618;2023-12-22T12:55:24;6.10;94.60
27368;DHT22;14839;48.106;11.618;2023-12-22T12:57:54;6.10;94.60
27368;DHT22;14839;48.106;11.618;2023-12-22T13:00:26;6.10;94.60
27368;DHT22;14839;48.106;11.618;2023-12-22T13:03:19;6.00;94.60
27368;DHT22;14839;48.106;11.618;2023-12-22T13:05:44;6.10;94.60
27368;DHT22;14839;48.106;11.618;2023-12-22T13:08:11;6.10;94.60
27368;DHT22;14839;48.106;11.618;2023-12-22T13:10:37;6.10;94.60
27368;DHT22;14839;48.106;11.618;2023-12-22T13:13:03;6.10;94.60
27368;DHT22;14839;48.106;11.618;2023-12-22T13:15:29;6.10;94.60
27368;DHT22;14839;48.106;11.618;2023-12-22T13:17:55;6.00;94.60
27368;DHT22;14839;48.106;11.618;2023-12-22T13:20:22;6.00;94.60
27368;DHT22;14839;48.106;11.618;2023-12-22T13:22:48;6.00;94.60
27368;DHT22;14839;48.106;11.618;2023-12-22T13:25:13;5.90;94.60
27368;DHT22;14839;48.106;11.618;2023-12-22T13:27:49;5.80;94.60
27368;DHT22;14839;48.106;11.618;2023-12-22T13:30:38;5.80;94.60
27368;DHT22;14839;48.106;11.618;2023-12-22T13:33:07;5.80;94.60
27368;DHT22;14839;48.106;11.618;2023-12-22T13:35:33;5.70;94.60
27368;DHT22;14839;48.106;11.618;2023-12-22T13:38:04;5.80;94.60
27368;DHT22;14839;48.106;11.618;2023-12-22T13:40:30;5.70;94.60
27368;DHT22;14839;48.106;11.618;2023-12-22T13:42:59;5.70;94.60
27368;DHT22;14839;48.106;11.618;2023-12-22T13:45:28;5.80;94.60
27368;DHT22;14839;48.106;11.618;2023-12-22T13:47:53;5.80;94.60
27368;DHT22;14839;48.106;11.618;2023-12-22T13:50:19;5.80;94.60
27368;DHT22;14839;48.106;11.618;2023-12-22T13:52:49;5.80;94.60
27368;DHT22;14839;48.106;11.618;2023-12-22T13:55:17;5.80;94.60
27368;DHT22;14839;48.106;11.618;2023-12-22T13:57:44;5.80;94.60
27368;DHT22;14839;48.106;11.618;2023-12-22T14:03:08;5.90;94.60
27368;DHT22;14839;48.106;11.618;2023-12-22T14:05:47;5.90;94.60
27368;DHT22;14839;48.106;11.618;2023-12-22T14:08:14;5.90;94.60
27368;DHT22;14839;48.106;11.618;2023-12-22T14:10:46;5.90;94.60
27368;DHT22;14839;48.106;11.618;2023-12-22T14:13:13;5.90;94.60
27368;DHT22;14839;48.106;11.618;2023-12-22T14:15:38;5.90;94.60
27368;DHT22;14839;48.106;11.618;2023-12-22T14:18:04;6.00;94.60
27368;DHT22;14839;48.106;11.618;2023-12-22T14:20:30;6.00;94.60
27368;DHT22;14839;48.106;11.618;2023-12-22T14:22:55;6.00;94.60
27368;DHT22;14839;48.106;11.618;2023-12-22T14:25:21;6.00;94.60
27368;DHT22;14839;48.106;11.618;2023-12-22T14:27:46;6.00;94.60
27368;DHT22;14839;48.106;11.618;2023-12-22T14:30:12;6.00;94.60
27368;DHT22;14839;48.106;11.618;2023-12-22T14:32:38;6.10;94.60
27368;DHT22;14839;48.106;11.618;2023-12-22T14:35:04;6.10;94.60
27368;DHT22;14839;48.106;11.618;2023-12-22T14:37:30;6.10;94.60
27368;DHT22;14839;48.106;11.618;2023-12-22T14:39:56;6.20;94.60
27368;DHT22;14839;48.106;11.618;2023-12-22T14:42:21;6.20;94.60
27368;DHT22;14839;48.106;11.618;2023-12-22T14:44:47;6.20;94.60
27368;DHT22;14839;48.106;11.618;2023-12-22T14:47:12;6.30;94.60
27368;DHT22;14839;48.106;11.618;2023-12-22T14:49:38;6.30;94.60
27368;DHT22;14839;48.106;11.618;2023-12-22T14:52:04;6.30;94.60
27368;DHT22;14839;48.106;11.618;2023-12-22T14:54:29;6.30;94.60
27368;DHT22;14839;48.106;11.618;2023-12-22T14:56:55;6.30;94.60
27368;DHT22;14839;48.106;11.618;2023-12-22T14:59:21;6.40;94.60
27368;DHT22;14839;48.106;11.618;2023-12-22T15:01:46;6.40;94.60
27368;DHT22;14839;48.106;11.618;2023-12-22T15:04:12;6.30;94.60
27368;DHT22;14839;48.106;11.618;2023-12-22T15:06:38;6.40;94.60
27368;DHT22;14839;48.106;11.618;2023-12-22T15:09:06;6.40;94.60
27368;DHT22;14839;48.106;11.618;2023-12-22T15:11:31;6.40;94.60
27368;DHT22;14839;48.106;11.618;2023-12-22T15:13:57;6.40;94.60
27368;DHT22;14839;48.106;11.618;2023-12-22T15:16:22;6.40;94.60
27368;DHT22;14839;48.106;11.618;2023-12-22T15:18:48;6.40;94.60
27368;DHT22;14839;48.106;11.618;2023-12-22T15:21:23;6.50;94.60
27368;DHT22;14839;48.106;11.618;2023-12-22T15:23:49;6.40;94.60
27368;DHT22;14839;48.106;11.618;2023-12-22T15:26:22;6.40;94.60
27368;DHT22;14839;48.106;11.618;2023-12-22T15:28:48;6.40;94.60
27368;DHT22;14839;48.106;11.618;2023-12-22T15:31:14;6.40;94.60
27368;DHT22;14839;48.106;11.618;2023-12-22T15:33:40;6.30;94.60
27368;DHT22;14839;48.106;11.618;2023-12-22T15:36:05;6.40;94.60
27368;DHT22;14839;48.106;11.618;2023-12-22T15:38:31;6.40;94.60
27368;DHT22;14839;48.106;11.618;2023-12-22T15:41:00;6.50;94.60
27368;DHT22;14839;48.106;11.618;2023-12-22T15:43:26;6.50;94.60
27368;DHT22;14839;48.106;11.618;2023-12-22T15:45:52;6.50;94.60
27368;DHT22;14839;48.106;11.618;2023-12-22T15:48:18;6.50;94.60
27368;DHT22;14839;48.106;11.618;2023-12-22T15:50:44;6.60;94.60
27368;DHT22;14839;48.106;11.618;2023-12-22T15:53:10;6.60;94.60
27368;DHT22;14839;48.106;11.618;2023-12-22T15:55:36;6.60;94.60
27368;DHT22;14839;48.106;11.618;2023-12-22T15:58:01;6.60;94.60
27368;DHT22;14839;48.106;11.618;2023-12-22T16:00:27;6.60;94.60
27368;DHT22;14839;48.106;11.618;2023-12-22T16:02:53;6.70;94.60
27368;DHT22;14839;48.106;11.618;2023-12-22T16:05:19;6.60;94.60
27368;DHT22;14839;48.106;11.618;2023-12-22T16:07:44;6.70;94.60
27368;DHT22;14839;48.106;11.618;2023-12-22T16:10:10;6.70;94.60
27368;DHT22;14839;48.106;11.618;2023-12-22T16:12:37;6.70;94.60
27368;DHT22;14839;48.106;11.618;2023-12-22T16:15:02;6.70;94.60
27368;DHT22;14839;48.106;11.618;2023-12-22T16:17:30;6.80;94.60
27368;DHT22;14839;48.106;11.618;2023-12-22T16:19:56;6.80;94.60
27368;DHT22;14839;48.106;11.618;2023-12-22T16:22:22;6.80;94.60
27368;DHT22;14839;48.106;11.618;2023-12-22T16:24:47;6.80;94.60
27368;DHT22;14839;48.106;11.618;2023-12-22T16:27:13;6.90;94.60
27368;DHT22;14839;48.106;11.618;2023-12-22T16:29:40;6.90;94.60
27368;DHT22;14839;48.106;11.618;2023-12-22T16:32:06;6.90;94.60
27368;DHT22;14839;48.106;11.618;2023-12-22T16:34:32;6.90;94.60
27368;DHT22;14839;48.106;11.618;2023-12-22T16:36:57;7.00;94.60
27368;DHT22;14839;48.106;11.618;2023-12-22T16:39:23;7.00;94.60
27368;DHT22;14839;48.106;11.618;2023-12-22T16:41:49;7.00;94.60
27368;DHT22;14839;48.106;11.618;2023-12-22T16:44:15;7.10;94.60
27368;DHT22;14839;48.106;11.618;2023-12-22T16:46:44;7.10;94.60
27368;DHT22;14839;48.106;11.618;2023-12-22T16:49:09;7.10;94.60
27368;DHT22;14839;48.106;11.618;2023-12-22T16:51:36;7.20;94.60
27368;DHT22;14839;48.106;11.618;2023-12-22T16:54:02;7.20;94.60
27368;DHT22;14839;48.106;11.618;2023-12-22T16:56:28;7.20;94.60
27368;DHT22;14839;48.106;11.618;2023-12-22T16:58:53;7.20;94.60
27368;DHT22;14839;48.106;11.618;2023-12-22T17:01:19;7.20;94.60
27368;DHT22;14839;48.106;11.618;2023-12-22T17:03:45;7.20;94.60
27368;DHT22;14839;48.106;11.618;2023-12-22T17:06:10;7.20;94.60
27368;DHT22;14839;48.106;11.618;2023-12-22T17:08:36;7.20;94.60
27368;DHT22;14839;48.106;11.618;2023-12-22T17:11:01;7.20;94.60
27368;DHT22;14839;48.106;11.618;2023-12-22T17:13:27;7.20;94.60
27368;DHT22;14839;48.106;11.618;2023-12-22T17:15:53;7.20;94.60
27368;DHT22;14839;48.106;11.618;2023-12-22T17:18:18;7.20;94.60
27368;DHT22;14839;48.106;11.618;2023-12-22T17:20:44;7.20;94.60
27368;DHT22;14839;48.106;11.618;2023-12-22T17:23:10;7.20;94.60
27368;DHT22;14839;48.106;11.618;2023-12-22T17:25:35;7.20;94.60
27368;DHT22;14839;48.106;11.618;2023-12-22T17:28:01;7.20;94.60
27368;DHT22;14839;48.106;11.618;2023-12-22T17:30:26;7.20;94.60
27368;DHT22;14839;48.106;11.618;2023-12-22T17:32:53;7.20;94.60
27368;DHT22;14839;48.106;11.618;2023-12-22T17:35:18;7.20;94.60
27368;DHT22;14839;48.106;11.618;2023-12-22T17:37:44;7.20;94.60
27368;DHT22;14839;48.106;11.618;2023-12-22T17:40:10;7.20;94.60
27368;DHT22;14839;48.106;11.618;2023-12-22T17:42:36;7.20;94.60
27368;DHT22;14839;48.106;11.618;2023-12-22T17:45:02;7.20;94.60
27368;DHT22;14839;48.106;11.618;2023-12-22T17:47:27;7.20;94.60
27368;DHT22;14839;48.106;11.618;2023-12-22T17:49:53;7.20;94.60
27368;DHT22;14839;48.106;11.618;2023-12-22T17:52:19;7.20;94.60
27368;DHT22;14839;48.106;11.618;2023-12-22T17:54:44;7.30;94.60
27368;DHT22;14839;48.106;11.618;2023-12-22T17:57:10;7.30;94.60
27368;DHT22;14839;48.106;11.618;2023-12-22T17:59:42;7.20;94.60
27368;DHT22;14839;48.106;11.618;2023-12-22T18:02:08;7.20;94.60
27368;DHT22;14839;48.106;11.618;2023-12-22T18:04:37;7.30;94.60
27368;DHT22;14839;48.106;11.618;2023-12-22T18:07:04;7.20;94.60
27368;DHT22;14839;48.106;11.618;2023-12-22T18:09:29;7.20;94.60
27368;DHT22;14839;48.106;11.618;2023-12-22T18:11:55;7.30;94.60
27368;DHT22;14839;48.106;11.618;2023-12-22T18:14:21;7.20;94.60
27368;DHT22;14839;48.106;11.618;2023-12-22T18:16:46;7.20;94.60
27368;DHT22;14839;48.106;11.618;2023-12-22T18:19:12;7.20;94.60
27368;DHT22;14839;48.106;11.618;2023-12-22T18:21:38;7.20;94.60
27368;DHT22;14839;48.106;11.618;2023-12-22T18:24:04;7.20;94.60
27368;DHT22;14839;48.106;11.618;2023-12-22T18:26:29;7.20;94.60
27368;DHT22;14839;48.106;11.618;2023-12-22T18:28:55;7.20;94.60
27368;DHT22;14839;48.106;11.618;2023-12-22T18:31:22;7.20;94.60
27368;DHT22;14839;48.106;11.618;2023-12-22T18:33:47;7.20;94.60
27368;DHT22;14839;48.106;11.618;2023-12-22T18:36:13;7.20;94.60
27368;DHT22;14839;48.106;11.618;2023-12-22T18:38:38;7.20;94.60
27368;DHT22;14839;48.106;11.618;2023-12-22T18:41:04;7.20;94.60
27368;DHT22;14839;48.106;11.618;2023-12-22T18:43:30;7.20;94.60
27368;DHT22;14839;48.106;11.618;2023-12-22T18:45:55;7.30;94.60
27368;DHT22;14839;48.106;11.618;2023-12-22T18:48:21;7.30;94.60
27368;DHT22;14839;48.106;11.618;2023-12-22T18:50:47;7.30;94.60
27368;DHT22;14839;48.106;11.618;2023-12-22T18:53:12;7.40;94.60
27368;DHT22;14839;48.106;11.618;2023-12-22T18:55:38;7.40;94.60
27368;DHT22;14839;48.106;11.618;2023-12-22T18:58:04;7.50;94.60
27368;DHT22;14839;48.106;11.618;2023-12-22T19:00:30;7.50;94.60
27368;DHT22;14839;48.106;11.618;2023-12-22T19:02:58;7.50;94.60
27368;DHT22;14839;48.106;11.618;2023-12-22T19:05:24;7.60;94.60
27368;DHT22;14839;48.106;11.618;2023-12-22T19:07:50;7.70;94.60
27368;DHT22;14839;48.106;11.618;2023-12-22T19:10:16;7.70;94.60
27368;DHT22;14839;48.106;11.618;2023-12-22T19:12:42;7.70;94.60
27368;DHT22;14839;48.106;11.618;2023-12-22T19:15:10;7.70;94.60
27368;DHT22;14839;48.106;11.618;2023-12-22T19:17:35;7.70;94.60
27368;DHT22;14839;48.106;11.618;2023-12-22T19:20:05;7.70;94.60
27368;DHT22;14839;48.106;11.618;2023-12-22T19:22:31;7.70;94.60
27368;DHT22;14839;48.106;11.618;2023-12-22T19:24:57;7.70;94.60
27368;DHT22;14839;48.106;11.618;2023-12-22T19:27:22;7.70;94.60
27368;DHT22;14839;48.106;11.618;2023-12-22T19:29:48;7.70;94.60
27368;DHT22;14839;48.106;11.618;2023-12-22T19:32:14;7.70;94.60
27368;DHT22;14839;48.106;11.618;2023-12-22T19:34:41;7.70;94.60
27368;DHT22;14839;48.106;11.618;2023-12-22T19:37:07;7.80;94.60
27368;DHT22;14839;48.106;11.618;2023-12-22T19:39:32;7.80;94.60
27368;DHT22;14839;48.106;11.618;2023-12-22T19:41:58;7.80;94.60
27368;DHT22;14839;48.106;11.618;2023-12-22T19:44:24;7.80;94.60
27368;DHT22;14839;48.106;11.618;2023-12-22T19:46:49;7.80;94.60
27368;DHT22;14839;48.106;11.618;2023-12-22T19:49:15;7.80;94.60
27368;DHT22;14839;48.106;11.618;2023-12-22T19:51:40;7.70;94.60
27368;DHT22;14839;48.106;11.618;2023-12-22T19:54:06;7.70;94.60
27368;DHT22;14839;48.106;11.618;2023-12-22T19:56:32;7.80;94.60
27368;DHT22;14839;48.106;11.618;2023-12-22T19:58:57;7.80;94.60
27368;DHT22;14839;48.106;11.618;2023-12-22T20:01:24;7.80;94.60
27368;DHT22;14839;48.106;11.618;2023-12-22T20:03:49;7.80;94.60
27368;DHT22;14839;48.106;11.618;2023-12-22T20:06:15;7.70;94.60
27368;DHT22;14839;48.106;11.618;2023-12-22T20:08:41;7.70;94.60
27368;DHT22;14839;48.106;11.618;2023-12-22T20:11:07;7.70;94.60
27368;DHT22;14839;48.106;11.618;2023-12-22T20:13:33;7.70;94.60
27368;DHT22;14839;48.106;11.618;2023-12-22T20:16:00;7.70;94.60
27368;DHT22;14839;48.106;11.618;2023-12-22T20:18:26;7.80;94.60
27368;DHT22;14839;48.106;11.618;2023-12-22T20:20:52;7.80;94.60
27368;DHT22;14839;48.106;11.618;2023-12-22T20:23:17;7.80;94.60
27368;DHT22;14839;48.106;11.618;2023-12-22T20:25:43;7.80;94.60
27368;DHT22;14839;48.106;11.618;2023-12-22T20:28:09;7.80;94.60
27368;DHT22;14839;48.106;11.618;2023-12-22T20:30:35;7.80;94.60
27368;DHT22;14839;48.106;11.618;2023-12-22T20:33:00;7.80;94.60
27368;DHT22;14839;48.106;11.618;2023-12-22T20:35:26;7.90;94.60
27368;DHT22;14839;48.106;11.618;2023-12-22T20:37:51;7.90;94.60
27368;DHT22;14839;48.106;11.618;2023-12-22T20:40:17;7.90;94.60
27368;DHT22;14839;48.106;11.618;2023-12-22T20:42:42;7.90;94.60
27368;DHT22;14839;48.106;11.618;2023-12-22T20:45:08;7.90;94.60
27368;DHT22;14839;48.106;11.618;2023-12-22T20:47:34;7.90;94.60
27368;DHT22;14839;48.106;11.618;2023-12-22T20:49:59;7.90;94.60
27368;DHT22;14839;48.106;11.618;2023-12-22T20:52:25;7.90;94.60
27368;DHT22;14839;48.106;11.618;2023-12-22T20:54:50;8.00;94.60
27368;DHT22;14839;48.106;11.618;2023-12-22T20:57:16;7.90;94.60
27368;DHT22;14839;48.106;11.618;2023-12-22T20:59:42;8.00;94.60
27368;DHT22;14839;48.106;11.618;2023-12-22T21:02:07;8.00;94.60
27368;DHT22;14839;48.106;11.618;2023-12-22T21:04:39;8.00;94.60